Time;durP1;ratioP1;P1;durP2;ratioP2;P2;SDS_P1;SDS_P2;PMS_P1;PMS_P2;Temp;Humidity;BMP_temperature;BMP_pressure;BME280_temperature;BME280_humidity;BME280_pressure;Samples;Min_cycle;Max_cycle;Signal;HPM_P1;HPM_P2
2020/12/21 00:00:57;;;;;;;15.80;8.15;;;9.10;99.90;;;;;;4994858;28;20041;-67
2020/12/21 00:03:23;;;;;;;19.67;8.95;;;9.00;99.90;;;;;;4995096;28;20023;-67
2020/12/21 00:05:49;;;;;;;16.38;7.78;;;9.00;99.90;;;;;;4997158;28;20169;-68
2020/12/21 00:08:14;;;;;;;18.65;8.50;;;9.10;99.90;;;;;;4995812;28;20045;-68
2020/12/21 00:10:40;;;;;;;13.82;8.35;;;9.20;99.90;;;;;;4995616;28;20041;-66
2020/12/21 00:13:06;;;;;;;16.02;8.68;;;9.10;99.90;;;;;;4995641;28;20026;-67
2020/12/21 00:15:31;;;;;;;15.82;8.27;;;9.10;99.90;;;;;;4995863;28;20069;-68
2020/12/21 00:17:57;;;;;;;19.40;8.00;;;9.10;99.90;;;;;;4997098;28;20023;-68
2020/12/21 00:20:22;;;;;;;12.55;7.80;;;9.00;99.90;;;;;;4995456;28;20552;-66
2020/12/21 00:22:48;;;;;;;17.38;8.18;;;8.90;99.90;;;;;;4995441;28;20145;-68
2020/12/21 00:25:14;;;;;;;14.55;8.77;;;9.00;99.90;;;;;;4995242;28;20061;-68
2020/12/21 00:27:39;;;;;;;20.52;8.00;;;9.00;99.90;;;;;;4995143;28;20042;-68
2020/12/21 00:30:05;;;;;;;16.55;8.32;;;8.90;99.90;;;;;;4995132;28;20022;-68
2020/12/21 00:32:35;;;;;;;15.88;7.78;;;8.90;99.90;;;;;;4996602;28;20061;-67
2020/12/21 00:35:01;;;;;;;18.63;9.40;;;9.00;99.90;;;;;;4994793;28;20468;-68
2020/12/21 00:37:26;;;;;;;21.80;9.20;;;8.90;99.90;;;;;;4995092;28;20130;-68
2020/12/21 00:39:52;;;;;;;14.45;8.57;;;9.00;99.90;;;;;;4995006;28;20472;-68
2020/12/21 00:42:18;;;;;;;16.00;8.65;;;8.90;99.90;;;;;;4994131;28;20065;-68
2020/12/21 00:44:44;;;;;;;14.52;8.55;;;8.90;99.90;;;;;;4995588;28;20077;-66
2020/12/21 00:47:10;;;;;;;14.23;8.57;;;8.90;99.90;;;;;;4995080;28;20388;-67
2020/12/21 00:49:35;;;;;;;17.27;8.85;;;8.90;99.90;;;;;;4993860;28;20094;-67
2020/12/21 00:52:02;;;;;;;15.80;9.20;;;8.80;99.90;;;;;;4994925;28;20049;-68
2020/12/21 00:54:28;;;;;;;15.30;9.00;;;8.80;99.90;;;;;;4994528;28;20050;-67
2020/12/21 00:56:57;;;;;;;14.70;8.82;;;8.80;99.90;;;;;;4996289;28;20134;-67
2020/12/21 00:59:23;;;;;;;15.93;8.52;;;8.60;99.90;;;;;;4994749;28;20073;-67
2020/12/21 01:01:49;;;;;;;21.67;9.23;;;8.60;99.90;;;;;;4994728;28;20042;-66
2020/12/21 01:04:15;;;;;;;15.80;9.25;;;8.70;99.90;;;;;;4994467;28;20045;-67
2020/12/21 01:06:40;;;;;;;13.10;8.02;;;8.70;99.90;;;;;;4994396;28;20038;-68
2020/12/21 01:09:10;;;;;;;17.88;9.00;;;8.60;99.90;;;;;;4994414;28;20037;-66
2020/12/21 01:11:37;;;;;;;18.20;8.27;;;8.60;99.90;;;;;;4994942;28;20030;-68
2020/12/21 01:14:03;;;;;;;22.52;9.27;;;8.50;99.90;;;;;;4994249;28;20372;-66
2020/12/21 01:16:29;;;;;;;15.63;8.90;;;8.50;99.90;;;;;;4994385;28;20035;-68
2020/12/21 01:18:54;;;;;;;17.92;8.73;;;8.50;99.90;;;;;;4993606;28;20373;-68
2020/12/21 01:21:24;;;;;;;20.52;8.82;;;8.50;99.90;;;;;;4994246;28;20041;-67
2020/12/21 01:23:50;;;;;;;15.32;8.02;;;8.40;99.90;;;;;;4995804;28;20451;-66
2020/12/21 01:26:15;;;;;;;19.15;8.80;;;8.40;99.90;;;;;;4994291;28;20042;-68
2020/12/21 01:28:42;;;;;;;15.98;8.60;;;8.40;99.90;;;;;;4994261;28;20034;-68
2020/12/21 01:31:07;;;;;;;21.05;8.00;;;8.40;99.90;;;;;;4994328;28;20034;-67
2020/12/21 01:33:33;;;;;;;15.45;7.72;;;8.40;99.90;;;;;;4993327;28;20042;-68
2020/12/21 01:35:58;;;;;;;15.75;8.07;;;8.40;99.90;;;;;;4995572;28;20026;-68
2020/12/21 01:38:24;;;;;;;19.80;8.02;;;8.30;99.90;;;;;;4993921;28;20034;-68
2020/12/21 01:40:50;;;;;;;18.88;8.93;;;8.30;99.90;;;;;;4993702;28;20035;-67
2020/12/21 01:43:15;;;;;;;13.32;7.57;;;8.30;99.90;;;;;;4993594;28;20043;-67
2020/12/21 01:45:41;;;;;;;17.90;8.13;;;8.20;99.90;;;;;;4993536;28;20076;-67
2020/12/21 01:48:07;;;;;;;15.15;7.63;;;8.30;99.90;;;;;;4993833;28;20069;-68
2020/12/21 01:50:33;;;;;;;18.90;8.18;;;8.20;99.90;;;;;;4995209;28;20026;-68
2020/12/21 01:52:59;;;;;;;12.90;7.65;;;8.20;99.90;;;;;;4994261;28;20038;-67
2020/12/21 01:55:25;;;;;;;13.70;7.22;;;8.20;99.90;;;;;;4993550;28;20062;-67
2020/12/21 01:57:51;;;;;;;14.95;7.25;;;8.10;99.90;;;;;;4993404;28;20042;-68
2020/12/21 02:00:17;;;;;;;14.32;6.85;;;8.10;99.90;;;;;;4993424;28;20026;-68
2020/12/21 02:02:42;;;;;;;17.70;8.05;;;8.10;99.90;;;;;;4995105;28;20041;-67
2020/12/21 02:05:08;;;;;;;18.52;7.60;;;8.00;99.90;;;;;;4993462;28;20346;-67
2020/12/21 02:07:33;;;;;;;12.70;7.63;;;8.00;99.90;;;;;;4993269;28;20054;-67
2020/12/21 02:09:59;;;;;;;12.77;6.55;;;7.80;99.90;;;;;;4993455;28;20026;-68
2020/12/21 02:12:25;;;;;;;13.45;7.03;;;7.90;99.90;;;;;;4993229;28;20030;-67
2020/12/21 02:14:50;;;;;;;16.83;7.25;;;7.80;99.90;;;;;;4994460;28;20041;-68
2020/12/21 02:17:16;;;;;;;16.35;7.68;;;7.90;99.90;;;;;;4992818;28;20365;-70
2020/12/21 02:19:42;;;;;;;15.38;6.93;;;7.90;99.90;;;;;;4993576;28;20034;-68
2020/12/21 02:22:11;;;;;;;14.48;7.28;;;7.80;99.90;;;;;;4993247;28;20375;-66
2020/12/21 02:24:38;;;;;;;13.88;7.18;;;7.80;99.90;;;;;;4992998;28;20027;-67
2020/12/21 02:27:04;;;;;;;14.05;7.03;;;7.80;99.90;;;;;;4992017;28;20053;-68
2020/12/21 02:29:29;;;;;;;15.48;7.03;;;7.80;99.90;;;;;;4993604;28;20050;-68
2020/12/21 02:31:55;;;;;;;16.20;7.10;;;7.70;99.90;;;;;;4992937;28;20065;-68
2020/12/21 02:34:21;;;;;;;14.05;6.70;;;7.80;99.90;;;;;;4992948;28;20364;-68
2020/12/21 02:36:47;;;;;;;13.82;6.63;;;7.80;99.90;;;;;;4993015;28;20061;-68
2020/12/21 02:39:13;;;;;;;14.65;7.47;;;7.80;99.90;;;;;;4992594;28;20026;-68
2020/12/21 02:41:39;;;;;;;11.77;6.70;;;7.80;99.90;;;;;;4994236;28;20026;-67
2020/12/21 02:44:04;;;;;;;11.32;6.57;;;7.80;99.90;;;;;;4992747;28;20061;-68
2020/12/21 02:46:30;;;;;;;15.13;6.70;;;7.80;99.90;;;;;;4992776;28;20034;-69
2020/12/21 02:48:56;;;;;;;14.63;6.85;;;7.80;99.90;;;;;;4991834;28;20418;-67
2020/12/21 02:51:21;;;;;;;15.10;7.28;;;7.80;99.90;;;;;;4992622;28;20125;-68
2020/12/21 02:53:47;;;;;;;14.05;6.88;;;7.80;99.90;;;;;;4992971;28;20444;-68
2020/12/21 02:56:13;;;;;;;16.02;7.20;;;7.90;99.90;;;;;;4992506;28;20185;-67
2020/12/21 02:58:38;;;;;;;14.23;6.53;;;7.90;99.90;;;;;;4992489;28;20034;-68
2020/12/21 03:01:04;;;;;;;17.42;7.15;;;7.90;99.90;;;;;;4992802;28;20034;-67
2020/12/21 03:03:30;;;;;;;22.02;7.85;;;7.90;99.90;;;;;;4992381;28;20045;-68
2020/12/21 03:05:55;;;;;;;16.60;6.40;;;7.90;99.90;;;;;;4993305;28;20058;-68
2020/12/21 03:08:21;;;;;;;13.63;7.15;;;7.90;99.90;;;;;;4990827;28;20132;-68
2020/12/21 03:10:47;;;;;;;13.55;7.03;;;7.90;99.90;;;;;;4991220;28;20105;-68
2020/12/21 03:13:13;;;;;;;12.13;7.00;;;7.90;99.90;;;;;;4992381;28;20042;-68
2020/12/21 03:15:38;;;;;;;11.95;6.88;;;7.90;99.90;;;;;;4992499;28;20066;-68
2020/12/21 03:18:04;;;;;;;15.23;6.65;;;8.00;99.90;;;;;;4992324;28;20030;-69
2020/12/21 03:20:30;;;;;;;13.93;6.70;;;8.00;99.90;;;;;;4993862;28;20452;-67
2020/12/21 03:22:56;;;;;;;12.57;6.07;;;8.00;99.90;;;;;;4992424;28;20034;-67
2020/12/21 03:25:21;;;;;;;14.63;6.57;;;8.00;99.90;;;;;;4992264;28;20367;-67
2020/12/21 03:27:47;;;;;;;15.90;6.80;;;8.00;99.90;;;;;;4991800;28;20558;-68
2020/12/21 03:30:12;;;;;;;16.38;6.57;;;8.00;99.90;;;;;;4996393;28;20036;-67
2020/12/21 03:32:38;;;;;;;17.98;6.80;;;8.00;99.90;;;;;;4998010;28;20026;-67
2020/12/21 03:35:06;;;;;;;9.85;5.93;;;8.00;99.90;;;;;;4995125;28;20067;-67
2020/12/21 03:37:32;;;;;;;18.10;7.15;;;8.00;99.90;;;;;;4996389;28;20026;-68
2020/12/21 03:40:05;;;;;;;17.83;6.95;;;7.90;99.90;;;;;;4996430;28;20116;-68
2020/12/21 03:42:31;;;;;;;17.50;7.70;;;7.90;99.90;;;;;;4995926;28;20503;-67
2020/12/21 03:44:57;;;;;;;13.20;6.70;;;7.80;99.90;;;;;;4996486;28;20431;-67
2020/12/21 03:47:23;;;;;;;18.00;7.00;;;7.80;99.90;;;;;;4996237;28;20038;-68
2020/12/21 03:49:48;;;;;;;16.88;7.00;;;7.80;99.90;;;;;;4996175;28;20460;-68
2020/12/21 03:52:14;;;;;;;11.32;6.13;;;7.80;99.90;;;;;;4996230;28;20048;-67
2020/12/21 03:54:40;;;;;;;16.23;6.70;;;7.70;99.90;;;;;;4995662;28;20113;-67
2020/12/21 03:57:05;;;;;;;15.45;6.38;;;7.70;99.90;;;;;;4995862;28;20401;-67
2020/12/21 03:59:31;;;;;;;15.32;7.35;;;7.70;99.90;;;;;;4997328;28;20026;-68
2020/12/21 04:01:57;;;;;;;16.15;6.93;;;7.60;99.90;;;;;;4995749;28;20049;-67
2020/12/21 04:04:22;;;;;;;11.68;6.45;;;7.60;99.90;;;;;;4995604;28;20054;-66
2020/12/21 04:06:49;;;;;;;13.85;6.75;;;7.60;99.90;;;;;;4995759;28;20038;-68
2020/12/21 04:09:14;;;;;;;13.25;6.82;;;7.60;99.90;;;;;;4995800;28;20030;-67
2020/12/21 04:11:40;;;;;;;12.55;6.25;;;7.60;99.90;;;;;;4997171;28;20084;-67
2020/12/21 04:14:05;;;;;;;11.43;5.75;;;7.60;99.90;;;;;;4995374;28;20400;-67
2020/12/21 04:16:31;;;;;;;15.95;6.82;;;7.50;99.90;;;;;;4995706;28;20333;-68
2020/12/21 04:18:57;;;;;;;15.27;6.57;;;7.50;99.90;;;;;;4995348;28;20107;-67
2020/12/21 04:21:22;;;;;;;20.52;7.45;;;7.50;99.90;;;;;;4995314;28;20121;-67
2020/12/21 04:23:48;;;;;;;11.15;5.97;;;7.50;99.90;;;;;;4996814;28;20022;-68
2020/12/21 04:26:14;;;;;;;18.77;6.75;;;7.40;99.90;;;;;;4995229;28;20100;-67
2020/12/21 04:28:40;;;;;;;17.02;7.22;;;7.40;99.90;;;;;;4994110;28;20149;-67
2020/12/21 04:31:06;;;;;;;16.40;6.75;;;7.40;99.90;;;;;;4995144;28;20413;-68
2020/12/21 04:33:33;;;;;;;17.38;7.38;;;7.40;99.90;;;;;;4995375;28;20154;-67
2020/12/21 04:35:59;;;;;;;14.07;6.88;;;7.40;99.90;;;;;;4996742;28;20054;-67
2020/12/21 04:38:25;;;;;;;22.67;6.70;;;7.50;99.90;;;;;;4994641;28;20050;-66
2020/12/21 04:40:59;;;;;;;21.60;7.60;;;7.50;99.90;;;;;;4995180;28;20092;-68
2020/12/21 04:43:25;;;;;;;20.55;7.63;;;7.50;99.90;;;;;;4994974;28;20461;-68
2020/12/21 04:45:55;;;;;;;20.27;7.47;;;7.50;99.90;;;;;;4995098;28;20031;-68
2020/12/21 04:48:23;;;;;;;12.10;6.60;;;7.50;99.90;;;;;;4995051;28;20054;-68
2020/12/21 04:50:56;;;;;;;17.08;7.25;;;7.60;99.90;;;;;;4996205;28;20468;-67
2020/12/21 04:53:23;;;;;;;16.85;6.85;;;7.60;99.90;;;;;;4994896;28;20088;-69
2020/12/21 04:55:49;;;;;;;20.10;7.43;;;7.60;99.90;;;;;;4994555;28;20046;-69
2020/12/21 04:58:15;;;;;;;18.17;6.90;;;7.50;99.90;;;;;;4994780;28;20520;-68
2020/12/21 05:00:41;;;;;;;20.05;7.00;;;7.50;99.90;;;;;;4994831;28;20122;-68
2020/12/21 05:03:06;;;;;;;14.98;6.55;;;7.50;99.90;;;;;;4994495;28;20018;-68
2020/12/21 05:05:40;;;;;;;14.25;6.93;;;7.50;99.90;;;;;;4995953;28;20038;-66
2020/12/21 05:08:12;;;;;;;16.98;6.50;;;7.50;99.90;;;;;;4994669;28;20165;-67
2020/12/21 05:10:41;;;;;;;16.63;6.60;;;7.40;99.90;;;;;;4993592;28;20034;-68
2020/12/21 05:13:07;;;;;;;20.55;7.47;;;7.40;99.90;;;;;;4994708;28;20038;-68
2020/12/21 05:15:33;;;;;;;14.73;6.85;;;7.40;99.90;;;;;;4994231;28;20038;-67
2020/12/21 05:18:03;;;;;;;19.98;7.15;;;7.40;99.90;;;;;;4996021;28;20037;-67
2020/12/21 05:20:29;;;;;;;14.45;6.55;;;7.50;99.90;;;;;;4994851;28;20414;-68
2020/12/21 05:22:54;;;;;;;16.60;7.25;;;7.30;99.90;;;;;;4994378;28;20038;-69
2020/12/21 05:25:20;;;;;;;18.25;7.72;;;7.30;99.90;;;;;;4994265;28;20044;-69
2020/12/21 05:27:46;;;;;;;20.38;6.90;;;7.30;99.90;;;;;;4991839;28;20380;-68
2020/12/21 05:30:12;;;;;;;16.63;6.78;;;7.40;99.90;;;;;;4993905;28;20332;-68
2020/12/21 05:32:37;;;;;;;18.42;7.97;;;7.40;99.90;;;;;;4995520;28;20348;-68
2020/12/21 05:35:05;;;;;;;20.90;8.13;;;7.50;99.90;;;;;;4994127;28;20472;-68
2020/12/21 05:37:31;;;;;;;18.23;8.20;;;7.50;99.90;;;;;;4993022;28;20057;-68
2020/12/21 05:39:57;;;;;;;17.17;7.50;;;7.40;99.90;;;;;;4993826;28;20031;-68
2020/12/21 05:42:24;;;;;;;13.13;6.93;;;7.40;99.90;;;;;;4992974;28;20468;-68
2020/12/21 05:45:01;;;;;;;23.70;8.80;;;7.50;99.90;;;;;;4995381;28;20385;-69
2020/12/21 05:47:28;;;;;;;16.85;6.80;;;7.50;99.90;;;;;;4994195;28;20346;-68
2020/12/21 05:50:03;;;;;;;21.92;7.40;;;7.50;99.90;;;;;;4993360;28;20034;-69
2020/12/21 05:52:38;;;;;;;22.83;7.10;;;7.50;99.90;;;;;;4993497;28;20170;-68
2020/12/21 05:55:05;;;;;;;20.45;7.05;;;7.40;99.90;;;;;;4993485;28;20053;-68
2020/12/21 05:57:31;;;;;;;12.68;6.55;;;7.40;99.90;;;;;;4993868;28;20381;-69
2020/12/21 06:00:02;;;;;;;23.02;8.02;;;7.40;99.90;;;;;;4995216;28;20073;-68
2020/12/21 06:02:31;;;;;;;16.90;6.93;;;7.40;99.90;;;;;;4993778;28;20034;-68
2020/12/21 06:05:05;;;;;;;20.75;6.85;;;7.40;99.90;;;;;;4993468;28;20042;-68
2020/12/21 06:07:33;;;;;;;18.88;6.80;;;7.40;99.90;;;;;;4993319;28;20045;-67
2020/12/21 06:10:01;;;;;;;19.58;6.45;;;7.40;99.90;;;;;;4993435;28;20108;-68
2020/12/21 06:12:30;;;;;;;16.70;6.95;;;7.40;99.90;;;;;;4993384;28;20420;-68
2020/12/21 06:15:07;;;;;;;24.20;6.90;;;7.40;99.90;;;;;;4994622;28;20086;-67
2020/12/21 06:17:35;;;;;;;15.52;6.53;;;7.40;99.90;;;;;;4992311;28;20403;-68
2020/12/21 06:20:06;;;;;;;17.20;7.05;;;7.50;99.90;;;;;;4993287;28;20100;-68
2020/12/21 06:22:31;;;;;;;19.00;7.38;;;7.50;99.90;;;;;;4993139;28;20034;-68
2020/12/21 06:24:57;;;;;;;15.13;6.15;;;7.40;99.90;;;;;;4993235;28;20061;-69
2020/12/21 06:27:23;;;;;;;15.48;6.15;;;7.40;99.90;;;;;;4993290;28;20045;-67
2020/12/21 06:29:58;;;;;;;18.23;6.35;;;7.50;99.90;;;;;;4994595;28;20030;-68
2020/12/21 06:32:31;;;;;;;19.95;7.00;;;7.50;99.90;;;;;;4993042;28;20027;-68
2020/12/21 06:34:57;;;;;;;18.73;6.50;;;7.50;99.90;;;;;;4992612;28;20045;-68
2020/12/21 06:37:23;;;;;;;15.10;6.57;;;7.50;99.90;;;;;;4992776;28;20339;-68
2020/12/21 06:40:00;;;;;;;17.90;6.47;;;7.50;99.90;;;;;;4992776;28;20030;-69
2020/12/21 06:42:26;;;;;;;14.75;6.00;;;7.60;99.90;;;;;;4992835;28;20041;-69
2020/12/21 06:44:55;;;;;;;12.80;6.57;;;7.60;99.90;;;;;;4994358;28;20031;-68
2020/12/21 06:47:26;;;;;;;15.07;5.90;;;7.60;99.90;;;;;;4992885;28;20035;-68
2020/12/21 06:49:52;;;;;;;14.50;5.97;;;7.60;99.90;;;;;;4991407;28;20120;-67
2020/12/21 06:52:19;;;;;;;18.98;7.55;;;7.60;99.90;;;;;;4992721;28;20473;-68
2020/12/21 06:54:48;;;;;;;16.65;6.55;;;7.60;99.90;;;;;;4992216;28;20400;-68
2020/12/21 06:57:14;;;;;;;19.73;6.43;;;7.60;99.90;;;;;;4992648;28;20041;-67
2020/12/21 06:59:39;;;;;;;12.52;6.28;;;7.60;99.90;;;;;;4992905;28;20034;-68
2020/12/21 07:02:05;;;;;;;17.42;6.70;;;7.60;99.90;;;;;;4992421;28;20034;-68
2020/12/21 07:04:32;;;;;;;17.75;6.40;;;7.50;99.90;;;;;;4992753;28;20035;-68
2020/12/21 07:07:02;;;;;;;13.33;6.07;;;7.50;99.90;;;;;;4992814;28;20034;-67
2020/12/21 07:09:30;;;;;;;16.85;5.55;;;7.50;99.90;;;;;;4991189;28;20432;-68
2020/12/21 07:11:59;;;;;;;13.60;6.13;;;7.50;99.90;;;;;;4993834;28;20110;-68
2020/12/21 07:14:27;;;;;;;16.10;6.38;;;7.50;99.90;;;;;;4992474;28;20046;-68
2020/12/21 07:17:03;;;;;;;12.85;5.95;;;7.50;99.90;;;;;;4992497;28;20037;-68
2020/12/21 07:19:30;;;;;;;17.42;6.18;;;7.40;99.90;;;;;;4992387;28;20515;-68
2020/12/21 07:21:57;;;;;;;12.48;5.90;;;7.50;99.90;;;;;;4992344;28;20031;-67
2020/12/21 07:24:23;;;;;;;14.43;6.25;;;7.50;99.90;;;;;;4992177;28;20042;-67
2020/12/21 07:26:50;;;;;;;13.88;6.00;;;7.50;99.90;;;;;;4993648;28;20018;-68
2020/12/21 07:29:15;;;;;;;16.40;5.63;;;7.60;99.90;;;;;;4992346;28;20057;-68
2020/12/21 07:31:42;;;;;;;15.57;5.65;;;7.60;99.90;;;;;;4992471;28;20460;-68
2020/12/21 07:34:08;;;;;;;14.32;6.07;;;7.60;99.90;;;;;;4992428;28;20121;-68
2020/12/21 07:36:40;;;;;;;9.80;5.47;;;7.50;99.90;;;;;;4992223;28;20113;-68
2020/12/21 07:39:13;;;;;;;13.05;5.80;;;7.50;99.90;;;;;;4991752;28;20030;-68
2020/12/21 07:41:53;;;;;;;13.55;5.40;;;7.60;99.90;;;;;;4974367;28;20090;-69
2020/12/21 07:44:31;;;;;;;16.70;5.75;;;7.60;99.90;;;;;;4991122;28;20112;-68
2020/12/21 07:47:08;;;;;;;18.98;5.80;;;7.50;99.90;;;;;;4992389;28;20044;-68
2020/12/21 07:49:35;;;;;;;15.27;5.80;;;7.50;99.90;;;;;;4992160;28;20121;-66
2020/12/21 07:52:04;;;;;;;15.00;5.88;;;7.60;99.90;;;;;;4990849;28;20063;-67
2020/12/21 07:54:45;;;;;;;12.95;5.38;;;7.50;99.90;;;;;;4990898;28;20443;-66
2020/12/21 07:57:17;;;;;;;19.27;6.47;;;7.50;99.90;;;;;;4991749;28;20022;-66
2020/12/21 07:59:43;;;;;;;14.00;6.28;;;7.50;99.90;;;;;;4993328;28;20029;-65
2020/12/21 08:02:10;;;;;;;16.52;6.38;;;7.50;99.90;;;;;;4992093;28;20384;-70
2020/12/21 08:04:36;;;;;;;12.95;5.82;;;7.50;99.90;;;;;;4990942;28;20045;-66
2020/12/21 08:07:08;;;;;;;12.77;5.28;;;7.60;99.90;;;;;;4991970;28;20077;-65
2020/12/21 08:09:37;;;;;;;13.43;5.82;;;7.60;99.90;;;;;;4991725;28;20527;-67
2020/12/21 08:12:12;;;;;;;21.10;7.05;;;7.60;99.90;;;;;;4991900;28;20028;-66
2020/12/21 08:14:38;;;;;;;13.23;5.28;;;7.70;99.90;;;;;;4995306;28;20114;-67
2020/12/21 08:17:12;;;;;;;9.68;4.88;;;7.60;99.90;;;;;;4994576;28;20044;-68
2020/12/21 08:19:51;;;;;;;13.93;5.25;;;7.80;99.90;;;;;;4995411;28;20035;-68
2020/12/21 08:22:24;;;;;;;13.10;5.13;;;7.70;99.90;;;;;;4995319;28;20058;-66
2020/12/21 08:25:06;;;;;;;15.02;5.18;;;7.80;99.90;;;;;;4994442;28;20039;-66
2020/12/21 08:27:33;;;;;;;13.73;5.55;;;7.90;99.90;;;;;;4995209;28;20027;-67
2020/12/21 08:30:09;;;;;;;16.55;5.25;;;7.90;99.90;;;;;;4997040;28;20037;-67
2020/12/21 08:32:35;;;;;;;11.13;5.30;;;7.90;99.90;;;;;;4995422;28;20431;-67
2020/12/21 08:35:00;;;;;;;11.15;5.07;;;7.90;99.90;;;;;;4995056;28;20138;-71
2020/12/21 08:37:26;;;;;;;17.20;5.47;;;8.00;99.90;;;;;;4993859;28;20034;-71
2020/12/21 08:39:52;;;;;;;12.73;5.18;;;8.00;99.90;;;;;;4989232;28;20034;-68
2020/12/21 08:42:18;;;;;;;10.15;4.35;;;8.00;99.90;;;;;;4995243;28;20105;-68
2020/12/21 08:44:44;;;;;;;11.38;4.85;;;8.00;99.90;;;;;;4996224;28;20427;-68
2020/12/21 08:47:09;;;;;;;15.75;5.35;;;8.00;99.90;;;;;;4993803;28;20042;-67
2020/12/21 08:49:35;;;;;;;16.08;5.88;;;8.00;99.90;;;;;;4994703;28;20064;-67
2020/12/21 08:52:05;;;;;;;12.38;4.97;;;8.00;99.90;;;;;;4995188;28;20035;-67
2020/12/21 08:54:31;;;;;;;14.07;4.40;;;8.10;99.90;;;;;;4993746;28;20042;-66
2020/12/21 08:56:57;;;;;;;12.20;4.78;;;8.10;99.90;;;;;;4995902;28;20425;-66
2020/12/21 08:59:23;;;;;;;16.88;5.47;;;8.20;99.90;;;;;;4994613;28;20030;-66
2020/12/21 09:01:49;;;;;;;14.05;4.80;;;8.20;99.90;;;;;;4993420;28;20472;-66
2020/12/21 09:04:15;;;;;;;13.27;5.35;;;8.30;99.90;;;;;;4994402;28;20050;-66
2020/12/21 09:06:41;;;;;;;18.10;7.20;;;8.30;99.90;;;;;;4994005;28;20069;-67
2020/12/21 09:09:07;;;;;;;16.60;5.97;;;8.40;99.90;;;;;;4994287;28;20030;-67
2020/12/21 09:11:33;;;;;;;11.80;5.03;;;8.40;99.90;;;;;;4996360;28;20376;-67
2020/12/21 09:13:59;;;;;;;12.25;4.68;;;8.40;99.90;;;;;;4994267;28;20181;-67
2020/12/21 09:16:27;;;;;;;17.67;6.32;;;8.50;99.90;;;;;;4994603;28;20034;-67
2020/12/21 09:18:57;;;;;;;22.30;6.25;;;8.50;99.70;;;;;;4994198;28;20030;-66
2020/12/21 09:21:23;;;;;;;11.82;4.30;;;8.50;99.60;;;;;;4994377;28;20176;-66
2020/12/21 09:23:51;;;;;;;12.43;4.30;;;8.60;99.70;;;;;;4995860;28;20029;-66
2020/12/21 09:26:17;;;;;;;11.13;4.07;;;8.50;99.60;;;;;;4994164;28;20038;-66
2020/12/21 09:28:44;;;;;;;9.02;3.85;;;8.50;99.60;;;;;;4994035;28;20079;-69
2020/12/21 09:31:11;;;;;;;10.48;4.15;;;8.60;99.60;;;;;;4994190;28;20046;-67
2020/12/21 09:33:37;;;;;;;12.95;4.40;;;8.70;99.70;;;;;;4992968;28;20042;-68
2020/12/21 09:36:04;;;;;;;9.20;3.33;;;8.70;99.60;;;;;;4994780;28;20093;-69
2020/12/21 09:38:30;;;;;;;11.60;4.07;;;8.70;99.40;;;;;;4995759;28;20034;-67
2020/12/21 09:40:55;;;;;;;11.80;4.35;;;8.80;99.30;;;;;;4993999;28;20192;-67
2020/12/21 09:43:21;;;;;;;9.05;3.90;;;8.90;99.30;;;;;;4993679;28;20457;-66
2020/12/21 09:45:47;;;;;;;7.68;4.00;;;8.90;99.10;;;;;;4992507;28;20468;-66
2020/12/21 09:48:13;;;;;;;13.93;4.43;;;8.90;99.10;;;;;;4991694;28;20465;-68
2020/12/21 09:50:39;;;;;;;14.43;4.20;;;8.90;99.10;;;;;;4994243;28;20489;-67
2020/12/21 09:53:05;;;;;;;7.57;3.50;;;8.90;99.10;;;;;;4993663;28;20099;-66
2020/12/21 09:55:30;;;;;;;10.65;4.07;;;8.90;98.90;;;;;;4993107;28;20046;-65
2020/12/21 09:57:56;;;;;;;12.30;4.10;;;8.90;99.00;;;;;;4993495;28;20137;-68
2020/12/21 10:00:22;;;;;;;14.90;4.28;;;8.90;98.70;;;;;;4993218;28;20372;-66
2020/12/21 10:02:48;;;;;;;13.73;4.40;;;9.00;98.80;;;;;;4995200;28;20030;-66
2020/12/21 10:05:14;;;;;;;18.02;4.22;;;9.00;98.70;;;;;;4993341;28;20479;-67
2020/12/21 10:07:40;;;;;;;7.72;3.58;;;9.00;98.60;;;;;;4991958;28;20034;-68
2020/12/21 10:10:05;;;;;;;10.82;3.25;;;9.00;98.80;;;;;;4993453;28;20030;-66
2020/12/21 10:12:31;;;;;;;11.57;3.30;;;9.10;98.70;;;;;;4993138;28;20083;-67
2020/12/21 10:14:57;;;;;;;10.32;3.35;;;9.10;98.60;;;;;;4993436;28;20074;-66
2020/12/21 10:17:22;;;;;;;15.38;3.85;;;9.10;98.60;;;;;;4993055;28;20530;-66
2020/12/21 10:19:48;;;;;;;10.45;3.00;;;9.20;98.70;;;;;;4993404;28;20045;-67
2020/12/21 10:22:14;;;;;;;11.43;3.42;;;9.20;98.50;;;;;;4993236;28;20511;-66
2020/12/21 10:24:40;;;;;;;14.85;3.33;;;9.20;98.40;;;;;;4993523;28;20070;-67
2020/12/21 10:27:06;;;;;;;8.95;2.88;;;9.20;98.40;;;;;;4991947;28;20038;-65
2020/12/21 10:29:32;;;;;;;9.43;3.28;;;9.30;98.40;;;;;;4994257;28;20065;-69
2020/12/21 10:31:58;;;;;;;11.43;3.38;;;9.30;98.60;;;;;;4991660;28;20460;-72
2020/12/21 10:34:24;;;;;;;12.70;2.90;;;9.30;98.30;;;;;;4991746;28;20030;-71
2020/12/21 10:36:50;;;;;;;8.63;3.60;;;9.30;98.20;;;;;;4990957;28;20081;-72
2020/12/21 10:39:17;;;;;;;6.20;2.75;;;9.30;98.10;;;;;;4992272;28;20056;-72
2020/12/21 10:41:43;;;;;;;14.50;2.80;;;9.30;98.20;;;;;;4994445;28;20026;-72
2020/12/21 10:44:08;;;;;;;12.85;2.50;;;9.30;98.20;;;;;;4992889;28;20318;-70
2020/12/21 10:46:34;;;;;;;7.13;2.90;;;9.40;98.10;;;;;;4992896;28;20438;-69
2020/12/21 10:49:00;;;;;;;5.32;2.88;;;9.40;98.20;;;;;;4992446;28;20050;-73
2020/12/21 10:51:27;;;;;;;7.15;2.70;;;9.50;98.10;;;;;;4992586;28;20094;-68
2020/12/21 10:53:53;;;;;;;8.87;2.40;;;9.50;97.80;;;;;;4994088;28;20030;-67
2020/12/21 10:56:19;;;;;;;11.48;2.50;;;9.60;97.90;;;;;;4992655;28;20610;-68
2020/12/21 10:58:44;;;;;;;11.40;3.30;;;9.60;97.80;;;;;;4992485;28;20073;-67
2020/12/21 11:01:10;;;;;;;7.57;2.60;;;9.60;97.70;;;;;;4992259;28;20034;-67
2020/12/21 11:03:36;;;;;;;8.18;2.25;;;9.60;97.50;;;;;;4992350;28;20034;-65
2020/12/21 11:06:02;;;;;;;10.90;2.42;;;9.70;97.50;;;;;;4991524;28;20030;-66
2020/12/21 11:08:28;;;;;;;10.05;2.90;;;9.70;97.30;;;;;;4993750;28;20041;-66
2020/12/21 11:10:53;;;;;;;12.13;2.65;;;9.70;97.40;;;;;;4992358;28;20038;-64
2020/12/21 11:13:19;;;;;;;7.32;2.97;;;9.70;97.50;;;;;;4992240;28;20052;-65
2020/12/21 11:15:44;;;;;;;13.13;2.72;;;9.80;97.40;;;;;;4992236;28;20046;-68
2020/12/21 11:18:10;;;;;;;18.60;5.75;;;9.80;97.30;;;;;;4992309;28;20026;-68
2020/12/21 11:20:36;;;;;;;13.75;3.45;;;9.80;97.30;;;;;;4993997;28;20057;-66
2020/12/21 11:23:02;;;;;;;10.18;3.33;;;9.80;97.10;;;;;;4992567;28;20089;-67
2020/12/21 11:25:28;;;;;;;12.32;3.17;;;9.90;97.30;;;;;;4992281;28;20077;-67
2020/12/21 11:27:54;;;;;;;8.00;2.78;;;9.90;97.10;;;;;;4989668;28;20034;-65
2020/12/21 11:30:19;;;;;;;10.93;3.10;;;10.00;96.60;;;;;;4991243;28;20053;-68
2020/12/21 11:32:45;;;;;;;5.53;2.08;;;10.00;96.60;;;;;;4993740;28;20034;-68
2020/12/21 11:35:10;;;;;;;12.57;3.00;;;10.20;96.50;;;;;;4992051;28;20034;-67
2020/12/21 11:37:36;;;;;;;13.75;3.47;;;10.40;96.50;;;;;;4991063;28;20050;-67
2020/12/21 11:40:04;;;;;;;13.93;3.15;;;10.50;96.40;;;;;;4992253;28;20030;-70
2020/12/21 11:42:30;;;;;;;9.55;3.00;;;10.60;96.10;;;;;;4974769;28;20031;-67
2020/12/21 11:44:56;;;;;;;12.90;3.15;;;10.70;96.00;;;;;;4993798;28;20053;-69
2020/12/21 11:47:21;;;;;;;9.70;2.97;;;10.70;95.80;;;;;;4992190;28;20043;-69
2020/12/21 11:49:47;;;;;;;7.05;2.60;;;10.70;95.80;;;;;;4994425;28;20104;-68
2020/12/21 11:52:13;;;;;;;8.15;2.95;;;10.70;95.70;;;;;;4995942;28;20683;-69
2020/12/21 11:54:38;;;;;;;7.75;2.47;;;10.70;95.70;;;;;;4995624;28;20080;-69
2020/12/21 11:57:04;;;;;;;13.27;2.90;;;10.70;95.60;;;;;;4995958;28;20026;-66
2020/12/21 11:59:30;;;;;;;12.90;3.10;;;10.60;95.70;;;;;;4997493;28;20061;-69
2020/12/21 12:01:59;;;;;;;8.50;2.85;;;10.60;95.80;;;;;;4995625;28;20054;-69
2020/12/21 12:04:25;;;;;;;12.20;2.88;;;10.60;95.60;;;;;;4995385;28;20034;-69
2020/12/21 12:06:54;;;;;;;20.60;3.15;;;10.70;95.80;;;;;;4995476;28;20034;-72
2020/12/21 12:09:25;;;;;;;8.48;2.67;;;10.80;96.20;;;;;;4995738;28;20565;-68
2020/12/21 12:11:57;;;;;;;15.10;3.25;;;10.90;95.50;;;;;;4996981;28;20453;-70
2020/12/21 12:14:23;;;;;;;18.52;5.30;;;10.90;95.40;;;;;;4995598;28;20439;-70
2020/12/21 12:16:49;;;;;;;12.50;3.53;;;10.90;95.50;;;;;;4995411;28;20026;-70
2020/12/21 12:19:15;;;;;;;7.82;2.67;;;10.90;95.30;;;;;;4995355;28;20038;-70
2020/12/21 12:21:41;;;;;;;7.22;2.38;;;10.90;95.40;;;;;;4995223;28;20062;-71
2020/12/21 12:24:07;;;;;;;7.93;2.60;;;10.80;95.30;;;;;;4994225;28;20117;-69
2020/12/21 12:26:33;;;;;;;10.05;2.67;;;10.80;95.30;;;;;;4996839;28;20026;-69
2020/12/21 12:28:59;;;;;;;6.55;2.28;;;10.80;95.20;;;;;;4995268;28;20105;-69
2020/12/21 12:31:24;;;;;;;8.32;2.60;;;10.80;95.20;;;;;;4995378;28;20042;-72
2020/12/21 12:33:51;;;;;;;5.10;2.10;;;10.80;95.40;;;;;;4993747;28;20053;-68
2020/12/21 12:36:21;;;;;;;9.68;3.13;;;10.70;95.10;;;;;;4994837;28;20022;-67
2020/12/21 12:38:47;;;;;;;11.07;2.90;;;10.60;95.40;;;;;;4995375;28;20073;-67
2020/12/21 12:41:13;;;;;;;9.88;2.30;;;10.60;95.20;;;;;;4994946;28;20424;-68
2020/12/21 12:43:39;;;;;;;11.40;2.50;;;10.60;95.30;;;;;;4995157;28;20045;-68
2020/12/21 12:46:06;;;;;;;8.38;2.10;;;10.60;95.60;;;;;;4994846;28;20353;-67